sensor_id;sensor_type;location;lat;lon;timestamp;pressure;altitude;pressure_sealevel;temperature;humidity
22566;BME280;11449;51.330;19.378;2023-05-08T00:01:06;100592.70;;;6.45;100.00
22566;BME280;11449;51.330;19.378;2023-05-08T00:06:14;100589.63;;;6.32;100.00
22566;BME280;11449;51.330;19.378;2023-05-08T00:11:22;100587.89;;;6.53;100.00
22566;BME280;11449;51.330;19.378;2023-05-08T00:16:30;100593.84;;;6.18;100.00
22566;BME280;11449;51.330;19.378;2023-05-08T00:21:38;100597.73;;;6.25;100.00
22566;BME280;11449;51.330;19.378;2023-05-08T00:26:46;100601.49;;;6.17;100.00
22566;BME280;11449;51.330;19.378;2023-05-08T00:31:54;100601.23;;;6.28;100.00
22566;BME280;11449;51.330;19.378;2023-05-08T00:37:02;100596.13;;;6.59;100.00
22566;BME280;11449;51.330;19.378;2023-05-08T00:42:10;100599.28;;;6.64;100.00
22566;BME280;11449;51.330;19.378;2023-05-08T00:47:19;100603.89;;;6.53;100.00
22566;BME280;11449;51.330;19.378;2023-05-08T00:52:30;100609.54;;;6.61;100.00
22566;BME280;11449;51.330;19.378;2023-05-08T00:57:39;100610.64;;;6.70;100.00
22566;BME280;11449;51.330;19.378;2023-05-08T01:02:47;100611.73;;;6.74;100.00
22566;BME280;11449;51.330;19.378;2023-05-08T01:07:55;100616.03;;;6.68;100.00
22566;BME280;11449;51.330;19.378;2023-05-08T01:13:31;100619.14;;;6.64;100.00
22566;BME280;11449;51.330;19.378;2023-05-08T01:24:35;100636.98;;;6.56;100.00
22566;BME280;11449;51.330;19.378;2023-05-08T01:35:16;100646.45;;;6.63;100.00
22566;BME280;11449;51.330;19.378;2023-05-08T01:40:46;100648.06;;;6.48;100.00
22566;BME280;11449;51.330;19.378;2023-05-08T01:46:03;100642.30;;;6.47;100.00
22566;BME280;11449;51.330;19.378;2023-05-08T01:51:19;100650.09;;;6.62;100.00
22566;BME280;11449;51.330;19.378;2023-05-08T01:56:29;100654.30;;;6.28;100.00
22566;BME280;11449;51.330;19.378;2023-05-08T02:01:38;100650.63;;;6.27;100.00
22566;BME280;11449;51.330;19.378;2023-05-08T02:06:47;100651.44;;;6.57;100.00
22566;BME280;11449;51.330;19.378;2023-05-08T02:11:56;100653.59;;;6.46;100.00
22566;BME280;11449;51.330;19.378;2023-05-08T02:17:06;100655.20;;;6.32;100.00
22566;BME280;11449;51.330;19.378;2023-05-08T02:22:17;100656.87;;;6.41;100.00
22566;BME280;11449;51.330;19.378;2023-05-08T02:27:28;100656.36;;;6.44;100.00
22566;BME280;11449;51.330;19.378;2023-05-08T02:32:37;100661.50;;;6.53;100.00
22566;BME280;11449;51.330;19.378;2023-05-08T02:37:50;100665.48;;;6.34;100.00
22566;BME280;11449;51.330;19.378;2023-05-08T02:42:59;100662.66;;;5.98;100.00
22566;BME280;11449;51.330;19.378;2023-05-08T02:48:13;100668.65;;;5.89;100.00
22566;BME280;11449;51.330;19.378;2023-05-08T02:53:30;100666.44;;;6.09;100.00
22566;BME280;11449;51.330;19.378;2023-05-08T02:58:43;100666.62;;;6.26;100.00
22566;BME280;11449;51.330;19.378;2023-05-08T03:04:03;100662.23;;;6.38;100.00
22566;BME280;11449;51.330;19.378;2023-05-08T03:09:18;100657.44;;;6.13;100.00
22566;BME280;11449;51.330;19.378;2023-05-08T03:14:28;100659.11;;;6.22;100.00
22566;BME280;11449;51.330;19.378;2023-05-08T03:19:38;100659.81;;;6.23;100.00
22566;BME280;11449;51.330;19.378;2023-05-08T03:24:47;100667.25;;;6.35;100.00
22566;BME280;11449;51.330;19.378;2023-05-08T03:30:00;100672.65;;;6.19;100.00
22566;BME280;11449;51.330;19.378;2023-05-08T03:35:12;100676.36;;;6.09;100.00
22566;BME280;11449;51.330;19.378;2023-05-08T03:40:21;100676.95;;;6.32;100.00
22566;BME280;11449;51.330;19.378;2023-05-08T03:45:30;100679.23;;;6.52;100.00
22566;BME280;11449;51.330;19.378;2023-05-08T03:50:38;100679.23;;;6.52;100.00
22566;BME280;11449;51.330;19.378;2023-05-08T03:55:46;100683.48;;;6.60;100.00
22566;BME280;11449;51.330;19.378;2023-05-08T04:06:30;100689.36;;;6.55;100.00
22566;BME280;11449;51.330;19.378;2023-05-08T04:11:45;100695.55;;;6.65;100.00
22566;BME280;11449;51.330;19.378;2023-05-08T04:17:00;100701.75;;;6.99;100.00
22566;BME280;11449;51.330;19.378;2023-05-08T04:22:10;100704.84;;;7.14;100.00
22566;BME280;11449;51.330;19.378;2023-05-08T04:27:19;100713.54;;;7.39;100.00
22566;BME280;11449;51.330;19.378;2023-05-08T04:32:28;100719.36;;;7.80;100.00
22566;BME280;11449;51.330;19.378;2023-05-08T04:37:37;100724.41;;;7.78;100.00
22566;BME280;11449;51.330;19.378;2023-05-08T04:42:46;100725.77;;;8.11;100.00
22566;BME280;11449;51.330;19.378;2023-05-08T04:47:54;100728.88;;;8.43;100.00
22566;BME280;11449;51.330;19.378;2023-05-08T04:53:02;100736.80;;;8.83;100.00
22566;BME280;11449;51.330;19.378;2023-05-08T04:58:10;100749.53;;;8.69;100.00
22566;BME280;11449;51.330;19.378;2023-05-08T05:03:18;100759.20;;;8.35;100.00
22566;BME280;11449;51.330;19.378;2023-05-08T05:08:26;100761.05;;;8.18;100.00
22566;BME280;11449;51.330;19.378;2023-05-08T05:13:34;100767.59;;;7.67;100.00
22566;BME280;11449;51.330;19.378;2023-05-08T05:18:42;100780.45;;;7.38;100.00
22566;BME280;11449;51.330;19.378;2023-05-08T05:23:50;100783.69;;;7.27;100.00
22566;BME280;11449;51.330;19.378;2023-05-08T05:28:58;100793.35;;;7.18;100.00
22566;BME280;11449;51.330;19.378;2023-05-08T05:34:06;100794.39;;;7.37;100.00
22566;BME280;11449;51.330;19.378;2023-05-08T05:39:14;100804.16;;;7.40;100.00
22566;BME280;11449;51.330;19.378;2023-05-08T05:44:22;100811.02;;;7.09;100.00
22566;BME280;11449;51.330;19.378;2023-05-08T05:49:29;100820.73;;;7.02;100.00
22566;BME280;11449;51.330;19.378;2023-05-08T05:54:37;100821.33;;;7.31;100.00
22566;BME280;11449;51.330;19.378;2023-05-08T05:59:45;100826.97;;;7.57;100.00
22566;BME280;11449;51.330;19.378;2023-05-08T06:04:53;100834.26;;;7.32;100.00
22566;BME280;11449;51.330;19.378;2023-05-08T06:10:01;100837.92;;;7.56;100.00
22566;BME280;11449;51.330;19.378;2023-05-08T06:15:09;100838.92;;;7.72;100.00
22566;BME280;11449;51.330;19.378;2023-05-08T06:20:19;100843.20;;;7.86;100.00
22566;BME280;11449;51.330;19.378;2023-05-08T06:25:27;100852.70;;;8.59;100.00
22566;BME280;11449;51.330;19.378;2023-05-08T06:30:35;100849.77;;;8.67;100.00
22566;BME280;11449;51.330;19.378;2023-05-08T06:35:46;100845.52;;;9.25;100.00
22566;BME280;11449;51.330;19.378;2023-05-08T06:40:54;100849.63;;;9.83;100.00
22566;BME280;11449;51.330;19.378;2023-05-08T06:46:02;100849.71;;;10.50;100.00
22566;BME280;11449;51.330;19.378;2023-05-08T06:51:10;100846.58;;;13.89;100.00
22566;BME280;11449;51.330;19.378;2023-05-08T06:56:18;100844.10;;;15.97;100.00
22566;BME280;11449;51.330;19.378;2023-05-08T07:01:26;100840.61;;;15.11;100.00
22566;BME280;11449;51.330;19.378;2023-05-08T07:06:34;100833.36;;;15.92;100.00
22566;BME280;11449;51.330;19.378;2023-05-08T07:11:42;100834.66;;;20.30;100.00
22566;BME280;11449;51.330;19.378;2023-05-08T07:16:50;100836.22;;;18.90;100.00
22566;BME280;11449;51.330;19.378;2023-05-08T07:21:57;100835.34;;;21.76;100.00
22566;BME280;11449;51.330;19.378;2023-05-08T07:27:06;100833.82;;;22.47;100.00
22566;BME280;11449;51.330;19.378;2023-05-08T07:32:15;100831.35;;;22.37;100.00
22566;BME280;11449;51.330;19.378;2023-05-08T07:37:23;100835.27;;;21.56;100.00
22566;BME280;11449;51.330;19.378;2023-05-08T07:42:40;100836.06;;;18.29;100.00
22566;BME280;11449;51.330;19.378;2023-05-08T07:47:55;100829.58;;;23.89;100.00
22566;BME280;11449;51.330;19.378;2023-05-08T07:53:03;100829.39;;;22.39;100.00
22566;BME280;11449;51.330;19.378;2023-05-08T07:58:11;100822.92;;;19.32;100.00
22566;BME280;11449;51.330;19.378;2023-05-08T08:03:18;100820.23;;;20.15;100.00
22566;BME280;11449;51.330;19.378;2023-05-08T08:08:26;100819.98;;;20.43;100.00
22566;BME280;11449;51.330;19.378;2023-05-08T08:13:34;100820.65;;;19.38;100.00
22566;BME280;11449;51.330;19.378;2023-05-08T08:18:42;100819.13;;;18.59;100.00
22566;BME280;11449;51.330;19.378;2023-05-08T08:23:49;100815.23;;;19.06;100.00
22566;BME280;11449;51.330;19.378;2023-05-08T08:28:57;100816.84;;;19.99;100.00
22566;BME280;11449;51.330;19.378;2023-05-08T08:34:05;100813.25;;;20.05;100.00
22566;BME280;11449;51.330;19.378;2023-05-08T08:39:13;100807.66;;;19.78;100.00
22566;BME280;11449;51.330;19.378;2023-05-08T08:44:21;100805.34;;;19.21;100.00
22566;BME280;11449;51.330;19.378;2023-05-08T08:49:34;100798.38;;;19.23;100.00
22566;BME280;11449;51.330;19.378;2023-05-08T08:54:43;100798.45;;;20.14;100.00
22566;BME280;11449;51.330;19.378;2023-05-08T08:59:52;100797.27;;;20.55;100.00
22566;BME280;11449;51.330;19.378;2023-05-08T09:05:02;100800.64;;;19.70;100.00
22566;BME280;11449;51.330;19.378;2023-05-08T09:10:10;100796.91;;;19.16;100.00
22566;BME280;11449;51.330;19.378;2023-05-08T09:15:21;100795.52;;;19.15;100.00
22566;BME280;11449;51.330;19.378;2023-05-08T09:20:29;100787.83;;;19.12;100.00
22566;BME280;11449;51.330;19.378;2023-05-08T09:25:41;100789.25;;;18.52;100.00
22566;BME280;11449;51.330;19.378;2023-05-08T09:30:54;100784.86;;;18.28;100.00
22566;BME280;11449;51.330;19.378;2023-05-08T09:36:03;100787.89;;;17.68;100.00
22566;BME280;11449;51.330;19.378;2023-05-08T09:41:15;100787.13;;;16.63;100.00
22566;BME280;11449;51.330;19.378;2023-05-08T09:46:25;100777.95;;;17.01;100.00
22566;BME280;11449;51.330;19.378;2023-05-08T09:51:33;100774.52;;;18.52;100.00
22566;BME280;11449;51.330;19.378;2023-05-08T09:56:40;100770.40;;;18.90;100.00
22566;BME280;11449;51.330;19.378;2023-05-08T10:01:49;100774.20;;;18.20;100.00
22566;BME280;11449;51.330;19.378;2023-05-08T10:06:57;100768.59;;;18.98;100.00
22566;BME280;11449;51.330;19.378;2023-05-08T10:12:05;100765.21;;;18.22;100.00
22566;BME280;11449;51.330;19.378;2023-05-08T10:17:19;100765.92;;;18.87;100.00
22566;BME280;11449;51.330;19.378;2023-05-08T10:22:35;100767.48;;;18.56;100.00
22566;BME280;11449;51.330;19.378;2023-05-08T10:27:53;100768.28;;;17.82;100.00
22566;BME280;11449;51.330;19.378;2023-05-08T10:33:02;100773.92;;;18.60;100.00
22566;BME280;11449;51.330;19.378;2023-05-08T10:38:15;100771.23;;;18.11;100.00
22566;BME280;11449;51.330;19.378;2023-05-08T10:43:24;100766.01;;;19.29;100.00
22566;BME280;11449;51.330;19.378;2023-05-08T10:48:59;100762.62;;;18.57;100.00
22566;BME280;11449;51.330;19.378;2023-05-08T10:54:12;100749.09;;;18.11;100.00
22566;BME280;11449;51.330;19.378;2023-05-08T10:59:25;100746.50;;;19.13;100.00
22566;BME280;11449;51.330;19.378;2023-05-08T11:04:33;100750.14;;;18.26;100.00
22566;BME280;11449;51.330;19.378;2023-05-08T11:15:02;100737.43;;;17.00;100.00
22566;BME280;11449;51.330;19.378;2023-05-08T11:20:13;100738.13;;;17.35;100.00
22566;BME280;11449;51.330;19.378;2023-05-08T11:25:40;100730.58;;;17.98;100.00
22566;BME280;11449;51.330;19.378;2023-05-08T11:30:52;100722.05;;;20.46;100.00
22566;BME280;11449;51.330;19.378;2023-05-08T11:36:18;100721.61;;;18.24;100.00
22566;BME280;11449;51.330;19.378;2023-05-08T11:41:27;100717.74;;;18.02;100.00
22566;BME280;11449;51.330;19.378;2023-05-08T11:46:55;100715.81;;;19.56;100.00
22566;BME280;11449;51.330;19.378;2023-05-08T11:52:03;100710.80;;;21.58;100.00
22566;BME280;11449;51.330;19.378;2023-05-08T11:57:16;100703.09;;;21.77;100.00
22566;BME280;11449;51.330;19.378;2023-05-08T12:02:40;100700.41;;;21.70;100.00
22566;BME280;11449;51.330;19.378;2023-05-08T12:07:48;100695.23;;;21.64;100.00
22566;BME280;11449;51.330;19.378;2023-05-08T12:12:56;100691.81;;;20.30;100.00
22566;BME280;11449;51.330;19.378;2023-05-08T12:18:03;100691.63;;;20.20;100.00
22566;BME280;11449;51.330;19.378;2023-05-08T12:23:11;100698.45;;;18.89;100.00
22566;BME280;11449;51.330;19.378;2023-05-08T12:28:19;100697.70;;;19.84;100.00
22566;BME280;11449;51.330;19.378;2023-05-08T12:33:27;100701.09;;;18.31;100.00
22566;BME280;11449;51.330;19.378;2023-05-08T12:38:35;100693.40;;;19.77;100.00
22566;BME280;11449;51.330;19.378;2023-05-08T12:43:45;100681.37;;;18.69;100.00
22566;BME280;11449;51.330;19.378;2023-05-08T12:49:00;100684.27;;;19.63;100.00
22566;BME280;11449;51.330;19.378;2023-05-08T12:54:08;100686.54;;;19.03;100.00
22566;BME280;11449;51.330;19.378;2023-05-08T12:59:16;100680.26;;;17.18;100.00
22566;BME280;11449;51.330;19.378;2023-05-08T13:04:24;100676.13;;;17.62;100.00
22566;BME280;11449;51.330;19.378;2023-05-08T13:09:32;100672.79;;;17.31;100.00
22566;BME280;11449;51.330;19.378;2023-05-08T13:14:39;100665.39;;;16.99;100.00
22566;BME280;11449;51.330;19.378;2023-05-08T13:19:47;100666.27;;;17.36;100.00
22566;BME280;11449;51.330;19.378;2023-05-08T13:24:55;100661.95;;;16.96;100.00
22566;BME280;11449;51.330;19.378;2023-05-08T13:30:03;100660.02;;;17.43;100.00
22566;BME280;11449;51.330;19.378;2023-05-08T13:35:11;100661.40;;;16.24;100.00
22566;BME280;11449;51.330;19.378;2023-05-08T13:40:19;100655.34;;;16.32;100.00
22566;BME280;11449;51.330;19.378;2023-05-08T13:45:27;100644.91;;;17.08;100.00
22566;BME280;11449;51.330;19.378;2023-05-08T13:50:35;100639.61;;;16.87;100.00
22566;BME280;11449;51.330;19.378;2023-05-08T13:55:43;100646.16;;;16.71;100.00
22566;BME280;11449;51.330;19.378;2023-05-08T14:00:51;100641.77;;;16.65;100.00
22566;BME280;11449;51.330;19.378;2023-05-08T14:05:59;100640.38;;;16.07;100.00
22566;BME280;11449;51.330;19.378;2023-05-08T14:11:07;100635.70;;;16.92;100.00
22566;BME280;11449;51.330;19.378;2023-05-08T14:16:15;100633.64;;;16.76;100.00
22566;BME280;11449;51.330;19.378;2023-05-08T14:21:22;100636.06;;;16.55;100.00
22566;BME280;11449;51.330;19.378;2023-05-08T14:26:25;100633.30;;;16.53;100.00
22566;BME280;11449;51.330;19.378;2023-05-08T14:31:33;100639.75;;;16.27;100.00
22566;BME280;11449;51.330;19.378;2023-05-08T14:36:41;100640.27;;;16.05;100.00
22566;BME280;11449;51.330;19.378;2023-05-08T14:41:49;100648.25;;;16.27;100.00
22566;BME280;11449;51.330;19.378;2023-05-08T14:46:56;100646.46;;;16.22;100.00
22566;BME280;11449;51.330;19.378;2023-05-08T14:52:05;100642.19;;;16.68;100.00
22566;BME280;11449;51.330;19.378;2023-05-08T14:57:13;100639.95;;;16.66;100.00
22566;BME280;11449;51.330;19.378;2023-05-08T15:02:22;100642.75;;;16.33;100.00
22566;BME280;11449;51.330;19.378;2023-05-08T15:07:30;100638.73;;;15.85;100.00
22566;BME280;11449;51.330;19.378;2023-05-08T15:12:38;100632.00;;;16.09;100.00
22566;BME280;11449;51.330;19.378;2023-05-08T15:17:45;100626.89;;;16.43;100.00
22566;BME280;11449;51.330;19.378;2023-05-08T15:22:53;100619.70;;;16.19;100.00
22566;BME280;11449;51.330;19.378;2023-05-08T15:28:01;100624.45;;;16.13;100.00
22566;BME280;11449;51.330;19.378;2023-05-08T15:33:04;100629.27;;;15.89;100.00
22566;BME280;11449;51.330;19.378;2023-05-08T15:38:11;100637.16;;;15.72;100.00
22566;BME280;11449;51.330;19.378;2023-05-08T15:43:19;100631.99;;;15.68;100.00
22566;BME280;11449;51.330;19.378;2023-05-08T15:48:27;100626.55;;;15.67;100.00
22566;BME280;11449;51.330;19.378;2023-05-08T15:53:35;100616.67;;;15.84;100.00
22566;BME280;11449;51.330;19.378;2023-05-08T15:58:42;100618.61;;;16.02;100.00
22566;BME280;11449;51.330;19.378;2023-05-08T16:03:50;100611.69;;;15.92;100.00
22566;BME280;11449;51.330;19.378;2023-05-08T16:08:58;100616.09;;;15.61;100.00
22566;BME280;11449;51.330;19.378;2023-05-08T16:14:06;100627.02;;;15.30;100.00
22566;BME280;11449;51.330;19.378;2023-05-08T16:19:14;100619.49;;;15.34;100.00
22566;BME280;11449;51.330;19.378;2023-05-08T16:24:22;100612.79;;;15.47;100.00
22566;BME280;11449;51.330;19.378;2023-05-08T16:29:30;100606.91;;;15.49;100.00
22566;BME280;11449;51.330;19.378;2023-05-08T16:34:37;100611.07;;;15.32;100.00
22566;BME280;11449;51.330;19.378;2023-05-08T16:39:45;100612.52;;;15.31;100.00
22566;BME280;11449;51.330;19.378;2023-05-08T16:44:53;100614.02;;;15.15;100.00
22566;BME280;11449;51.330;19.378;2023-05-08T16:50:02;100614.53;;;15.15;100.00
22566;BME280;11449;51.330;19.378;2023-05-08T16:55:10;100614.35;;;15.09;100.00
22566;BME280;11449;51.330;19.378;2023-05-08T17:00:19;100613.67;;;14.94;100.00
22566;BME280;11449;51.330;19.378;2023-05-08T17:05:27;100616.40;;;14.85;100.00
22566;BME280;11449;51.330;19.378;2023-05-08T17:10:35;100616.36;;;14.86;100.00
22566;BME280;11449;51.330;19.378;2023-05-08T17:15:43;100617.75;;;14.94;100.00
22566;BME280;11449;51.330;19.378;2023-05-08T17:20:51;100614.84;;;15.03;100.00
22566;BME280;11449;51.330;19.378;2023-05-08T17:25:59;100611.76;;;15.14;100.00
22566;BME280;11449;51.330;19.378;2023-05-08T17:31:07;100617.22;;;15.14;100.00
22566;BME280;11449;51.330;19.378;2023-05-08T17:36:15;100621.76;;;14.89;100.00
22566;BME280;11449;51.330;19.378;2023-05-08T17:41:23;100620.30;;;14.62;100.00
22566;BME280;11449;51.330;19.378;2023-05-08T17:46:31;100615.49;;;14.50;100.00
22566;BME280;11449;51.330;19.378;2023-05-08T17:51:39;100618.27;;;14.45;100.00
22566;BME280;11449;51.330;19.378;2023-05-08T17:56:50;100624.98;;;14.28;100.00
22566;BME280;11449;51.330;19.378;2023-05-08T18:01:57;100625.94;;;14.24;100.00
22566;BME280;11449;51.330;19.378;2023-05-08T18:07:05;100634.86;;;14.19;100.00
22566;BME280;11449;51.330;19.378;2023-05-08T18:12:13;100638.45;;;14.08;100.00
22566;BME280;11449;51.330;19.378;2023-05-08T18:17:21;100641.21;;;13.87;100.00
22566;BME280;11449;51.330;19.378;2023-05-08T18:22:29;100642.02;;;13.74;100.00
22566;BME280;11449;51.330;19.378;2023-05-08T18:27:41;100648.29;;;13.59;100.00
22566;BME280;11449;51.330;19.378;2023-05-08T18:32:49;100652.86;;;13.68;100.00
22566;BME280;11449;51.330;19.378;2023-05-08T18:38:01;100658.16;;;13.58;100.00
22566;BME280;11449;51.330;19.378;2023-05-08T18:43:10;100653.90;;;13.42;100.00
22566;BME280;11449;51.330;19.378;2023-05-08T18:48:18;100656.61;;;13.29;100.00
22566;BME280;11449;51.330;19.378;2023-05-08T18:53:26;100663.86;;;13.16;100.00
22566;BME280;11449;51.330;19.378;2023-05-08T18:58:34;100670.80;;;13.01;100.00
22566;BME280;11449;51.330;19.378;2023-05-08T19:03:42;100671.30;;;12.59;100.00
22566;BME280;11449;51.330;19.378;2023-05-08T19:08:49;100675.99;;;12.50;100.00
22566;BME280;11449;51.330;19.378;2023-05-08T19:13:58;100671.83;;;12.48;100.00
22566;BME280;11449;51.330;19.378;2023-05-08T19:19:06;100676.42;;;12.33;100.00
22566;BME280;11449;51.330;19.378;2023-05-08T19:24:14;100677.95;;;12.25;100.00
22566;BME280;11449;51.330;19.378;2023-05-08T19:29:22;100677.30;;;12.07;100.00
22566;BME280;11449;51.330;19.378;2023-05-08T19:34:30;100674.20;;;12.16;100.00
22566;BME280;11449;51.330;19.378;2023-05-08T19:39:38;100677.98;;;11.80;100.00
22566;BME280;11449;51.330;19.378;2023-05-08T19:44:46;100675.76;;;11.25;100.00
22566;BME280;11449;51.330;19.378;2023-05-08T19:49:54;100675.27;;;11.21;100.00
22566;BME280;11449;51.330;19.378;2023-05-08T19:55:02;100674.92;;;11.02;100.00
22566;BME280;11449;51.330;19.378;2023-05-08T20:00:10;100670.65;;;10.90;100.00
22566;BME280;11449;51.330;19.378;2023-05-08T20:05:18;100672.31;;;10.54;100.00
22566;BME280;11449;51.330;19.378;2023-05-08T20:10:27;100662.67;;;10.55;100.00
22566;BME280;11449;51.330;19.378;2023-05-08T20:15:35;100668.10;;;10.56;100.00
22566;BME280;11449;51.330;19.378;2023-05-08T20:20:43;100666.61;;;10.45;100.00
22566;BME280;11449;51.330;19.378;2023-05-08T20:25:52;100663.02;;;10.30;100.00
22566;BME280;11449;51.330;19.378;2023-05-08T20:31:01;100664.42;;;9.91;100.00
22566;BME280;11449;51.330;19.378;2023-05-08T20:36:09;100662.80;;;10.04;100.00
22566;BME280;11449;51.330;19.378;2023-05-08T20:41:17;100662.00;;;9.86;100.00
22566;BME280;11449;51.330;19.378;2023-05-08T20:46:24;100663.77;;;9.79;100.00
22566;BME280;11449;51.330;19.378;2023-05-08T20:51:32;100661.51;;;9.76;100.00
22566;BME280;11449;51.330;19.378;2023-05-08T20:56:40;100659.77;;;9.74;100.00
22566;BME280;11449;51.330;19.378;2023-05-08T21:01:48;100656.09;;;9.76;100.00
22566;BME280;11449;51.330;19.378;2023-05-08T21:06:56;100654.05;;;9.60;100.00
22566;BME280;11449;51.330;19.378;2023-05-08T21:12:05;100650.58;;;9.52;100.00
22566;BME280;11449;51.330;19.378;2023-05-08T21:17:13;100652.02;;;9.33;100.00
22566;BME280;11449;51.330;19.378;2023-05-08T21:22:21;100646.45;;;9.24;100.00
22566;BME280;11449;51.330;19.378;2023-05-08T21:27:29;100646.45;;;9.32;100.00
22566;BME280;11449;51.330;19.378;2023-05-08T21:32:37;100641.75;;;9.17;100.00
22566;BME280;11449;51.330;19.378;2023-05-08T21:37:44;100637.04;;;9.14;100.00
22566;BME280;11449;51.330;19.378;2023-05-08T21:42:52;100635.83;;;8.99;100.00
22566;BME280;11449;51.330;19.378;2023-05-08T21:48:00;100641.77;;;8.92;100.00
22566;BME280;11449;51.330;19.378;2023-05-08T21:53:08;100638.11;;;8.71;100.00
22566;BME280;11449;51.330;19.378;2023-05-08T21:58:15;100636.89;;;8.82;100.00
22566;BME280;11449;51.330;19.378;2023-05-08T22:03:23;100630.43;;;8.62;100.00
22566;BME280;11449;51.330;19.378;2023-05-08T22:08:31;100628.52;;;8.65;100.00
22566;BME280;11449;51.330;19.378;2023-05-08T22:13:39;100627.45;;;8.53;100.00
22566;BME280;11449;51.330;19.378;2023-05-08T22:18:47;100632.02;;;8.55;100.00
22566;BME280;11449;51.330;19.378;2023-05-08T22:23:55;100637.02;;;8.30;100.00
22566;BME280;11449;51.330;19.378;2023-05-08T22:29:03;100629.17;;;7.75;100.00
22566;BME280;11449;51.330;19.378;2023-05-08T22:34:11;100625.00;;;8.39;100.00
22566;BME280;11449;51.330;19.378;2023-05-08T22:39:19;100619.73;;;8.24;100.00
22566;BME280;11449;51.330;19.378;2023-05-08T22:44:27;100615.60;;;7.81;100.00
22566;BME280;11449;51.330;19.378;2023-05-08T22:49:37;100615.93;;;7.76;100.00
22566;BME280;11449;51.330;19.378;2023-05-08T22:54:44;100610.79;;;7.99;100.00
22566;BME280;11449;51.330;19.378;2023-05-08T22:59:52;100607.65;;;8.06;100.00
22566;BME280;11449;51.330;19.378;2023-05-08T23:05:00;100615.07;;;7.76;100.00
22566;BME280;11449;51.330;19.378;2023-05-08T23:10:09;100612.71;;;8.09;100.00
22566;BME280;11449;51.330;19.378;2023-05-08T23:15:17;100613.59;;;8.05;100.00
22566;BME280;11449;51.330;19.378;2023-05-08T23:20:25;100613.60;;;8.15;100.00
22566;BME280;11449;51.330;19.378;2023-05-08T23:25:33;100617.77;;;7.98;100.00
22566;BME280;11449;51.330;19.378;2023-05-08T23:30:40;100618.23;;;7.81;100.00
22566;BME280;11449;51.330;19.378;2023-05-08T23:35:48;100616.73;;;7.56;100.00
22566;BME280;11449;51.330;19.378;2023-05-08T23:40:56;100610.34;;;7.71;100.00
22566;BME280;11449;51.330;19.378;2023-05-08T23:46:04;100607.54;;;7.66;100.00
22566;BME280;11449;51.330;19.378;2023-05-08T23:51:12;100609.91;;;7.51;100.00
22566;BME280;11449;51.330;19.378;2023-05-08T23:56:20;100610.35;;;7.31;100.00
